createdAt,value
2017-09-11T00:00:52.806Z,12.72
2017-09-11T00:01:59.459Z,12.79
2017-09-11T00:03:06.147Z,12.81
2017-09-11T00:04:13.333Z,12.80
2017-09-11T00:05:19.817Z,12.84
2017-09-11T00:06:26.007Z,12.89
2017-09-11T00:07:32.919Z,12.89
2017-09-11T00:08:39.148Z,12.97
2017-09-11T00:09:45.919Z,12.96
2017-09-11T00:10:52.122Z,12.88
2017-09-11T00:11:58.477Z,12.92
2017-09-11T00:13:05.722Z,12.93
2017-09-11T00:14:12.160Z,13.02
2017-09-11T00:15:18.460Z,12.98
2017-09-11T00:16:26.101Z,12.93
2017-09-11T00:17:32.435Z,12.97
2017-09-11T00:18:39.368Z,12.96
2017-09-11T00:19:45.722Z,12.93
2017-09-11T00:20:52.085Z,12.91
2017-09-11T00:21:58.975Z,12.78
2017-09-11T00:23:05.518Z,12.76
2017-09-11T00:24:11.947Z,12.73
2017-09-11T00:25:19.511Z,12.79
2017-09-11T00:26:26.251Z,12.84
2017-09-11T00:27:33.637Z,12.90
2017-09-11T00:28:39.771Z,12.96
2017-09-11T00:29:46.076Z,12.97
2017-09-11T00:30:52.313Z,12.92
2017-09-11T00:31:59.405Z,12.96
2017-09-11T00:33:06.009Z,12.97
2017-09-11T00:34:13.006Z,12.96
2017-09-11T00:35:20.069Z,13.01
2017-09-11T00:36:27.628Z,12.95
2017-09-11T00:37:34.009Z,13.00
2017-09-11T00:38:40.854Z,12.99
2017-09-11T00:39:47.074Z,13.00
2017-09-11T00:40:53.928Z,12.96
2017-09-11T00:42:00.391Z,12.96
2017-09-11T00:43:07.010Z,12.95
2017-09-11T00:44:13.437Z,12.93
2017-09-11T00:45:20.371Z,12.92
2017-09-11T00:46:26.458Z,12.91
2017-09-11T00:47:33.099Z,12.95
2017-09-11T00:48:39.731Z,12.85
2017-09-11T00:49:45.984Z,12.87
2017-09-11T00:50:51.706Z,12.91
2017-09-11T00:51:57.840Z,12.86
2017-09-11T00:53:03.744Z,12.88
2017-09-11T00:54:09.831Z,12.84
2017-09-11T00:55:15.367Z,12.78
2017-09-11T00:56:21.116Z,12.79
2017-09-11T00:57:27.340Z,12.70
2017-09-11T00:58:33.580Z,12.66
2017-09-11T00:59:39.991Z,12.63
2017-09-11T01:00:46.634Z,12.62
2017-09-11T01:01:52.773Z,12.50
2017-09-11T01:02:58.799Z,12.48
2017-09-11T01:04:04.999Z,12.48
2017-09-11T01:05:11.704Z,12.50
2017-09-11T01:06:17.943Z,12.47
2017-09-11T01:07:24.582Z,12.49
2017-09-11T01:08:32.082Z,12.43
2017-09-11T01:09:38.074Z,12.29
2017-09-11T01:10:44.483Z,12.20
2017-09-11T01:11:51.019Z,12.14
2017-09-11T01:12:57.473Z,12.07
2017-09-11T01:14:03.854Z,12.06
2017-09-11T01:15:10.379Z,12.03
2017-09-11T01:16:16.996Z,12.05
2017-09-11T01:17:23.352Z,12.14
2017-09-11T01:18:29.815Z,12.26
2017-09-11T01:19:35.594Z,12.19
2017-09-11T01:20:41.946Z,12.12
2017-09-11T01:21:47.655Z,12.13
2017-09-11T01:22:53.435Z,12.12
2017-09-11T01:23:59.450Z,12.20
2017-09-11T01:25:05.341Z,12.22
2017-09-11T01:26:10.904Z,12.12
2017-09-11T01:27:17.031Z,12.15
2017-09-11T01:28:22.965Z,12.18
2017-09-11T01:29:29.279Z,12.17
2017-09-11T01:30:34.944Z,12.19
2017-09-11T01:31:41.244Z,12.07
2017-09-11T01:32:47.729Z,12.09
2017-09-11T01:33:54.293Z,12.03
2017-09-11T01:35:00.487Z,12.04
2017-09-11T01:36:06.740Z,12.04
2017-09-11T01:37:13.395Z,12.06
2017-09-11T01:38:19.947Z,12.02
2017-09-11T01:39:26.998Z,11.95
2017-09-11T01:40:34.002Z,11.99
2017-09-11T01:41:40.724Z,11.95
2017-09-11T01:42:48.262Z,11.96
2017-09-11T01:43:55.286Z,11.95
2017-09-11T01:45:01.707Z,11.95
2017-09-11T01:46:08.187Z,11.95
2017-09-11T01:47:14.470Z,11.88
2017-09-11T01:48:20.831Z,11.94
2017-09-11T01:49:27.261Z,11.86
2017-09-11T01:50:33.448Z,11.86
2017-09-11T01:51:39.905Z,11.86
2017-09-11T01:52:46.400Z,11.89
2017-09-11T01:53:52.799Z,11.87
2017-09-11T01:54:59.235Z,11.91
2017-09-11T01:56:06.455Z,11.96
2017-09-11T01:57:12.855Z,11.92
2017-09-11T01:58:19.380Z,11.91
2017-09-11T01:59:26.111Z,11.91
2017-09-11T02:00:32.424Z,11.96
2017-09-11T02:01:38.538Z,12.00
2017-09-11T02:02:45.108Z,11.97
2017-09-11T02:03:52.301Z,11.85
2017-09-11T02:04:58.287Z,11.82
2017-09-11T02:06:04.486Z,11.79
2017-09-11T02:07:10.932Z,11.86
2017-09-11T02:08:17.286Z,11.90
2017-09-11T02:09:24.342Z,11.94
2017-09-11T02:10:31.411Z,11.91
2017-09-11T02:11:37.799Z,11.93
2017-09-11T02:12:44.212Z,11.80
2017-09-11T02:13:50.392Z,11.85
2017-09-11T02:14:56.752Z,11.89
2017-09-11T02:16:03.327Z,11.92
2017-09-11T02:17:09.657Z,11.90
2017-09-11T02:18:16.938Z,11.86
2017-09-11T02:19:23.478Z,11.91
2017-09-11T02:20:29.804Z,11.87
2017-09-11T02:21:35.862Z,11.81
2017-09-11T02:22:42.934Z,11.84
2017-09-11T02:23:49.261Z,11.92
2017-09-11T02:24:57.534Z,11.94
2017-09-11T02:26:04.884Z,11.94
2017-09-11T02:27:11.035Z,11.88
2017-09-11T02:28:17.181Z,11.84
2017-09-11T02:29:23.520Z,11.86
2017-09-11T02:30:29.504Z,11.86
2017-09-11T02:31:35.351Z,11.85
2017-09-11T02:32:42.425Z,11.85
2017-09-11T02:33:49.513Z,11.91
2017-09-11T02:34:55.960Z,11.93
2017-09-11T02:36:01.499Z,11.84
2017-09-11T02:37:08.022Z,11.86
2017-09-11T02:38:14.797Z,11.87
2017-09-11T02:39:21.149Z,11.89
2017-09-11T02:40:27.560Z,11.92
2017-09-11T02:41:34.012Z,11.96
2017-09-11T02:42:40.464Z,11.92
2017-09-11T02:43:46.994Z,11.92
2017-09-11T02:44:53.735Z,11.91
2017-09-11T02:46:00.679Z,11.83
2017-09-11T02:47:07.575Z,11.85
2017-09-11T02:48:13.736Z,11.92
2017-09-11T02:49:20.597Z,12.00
2017-09-11T02:50:27.048Z,12.01
2017-09-11T02:51:33.564Z,12.00
2017-09-11T02:52:40.043Z,11.97
2017-09-11T02:53:46.450Z,11.98
2017-09-11T02:54:53.069Z,11.86
2017-09-11T02:55:59.263Z,11.84
2017-09-11T02:57:05.794Z,11.86
2017-09-11T02:58:12.693Z,11.88
2017-09-11T02:59:19.238Z,11.82
2017-09-11T03:00:26.162Z,11.77
2017-09-11T03:01:32.174Z,11.84
2017-09-11T03:02:38.376Z,11.81
2017-09-11T03:03:45.490Z,11.80
2017-09-11T03:04:51.998Z,11.89
2017-09-11T03:05:59.156Z,11.87
2017-09-11T03:07:05.365Z,11.87
2017-09-11T03:08:11.684Z,11.88
2017-09-11T03:09:18.998Z,11.88
2017-09-11T03:10:26.151Z,11.81
2017-09-11T03:11:32.292Z,11.78
2017-09-11T03:12:39.381Z,11.81
2017-09-11T03:13:45.675Z,11.79
2017-09-11T03:14:52.063Z,11.76
2017-09-11T03:15:58.535Z,11.74
2017-09-11T03:17:04.580Z,11.71
2017-09-11T03:18:11.111Z,11.67
2017-09-11T03:19:17.445Z,11.65
2017-09-11T03:20:24.699Z,11.61
2017-09-11T03:21:31.000Z,11.61
2017-09-11T03:22:37.260Z,11.66
2017-09-11T03:23:43.715Z,11.54
2017-09-11T03:24:50.162Z,11.51
2017-09-11T03:25:56.558Z,11.40
2017-09-11T03:27:03.792Z,11.42
2017-09-11T03:28:10.241Z,11.34
2017-09-11T03:29:17.366Z,11.30
2017-09-11T03:30:24.127Z,11.31
2017-09-11T03:31:30.250Z,11.38
2017-09-11T03:32:36.962Z,11.39
2017-09-11T03:33:43.496Z,11.46
2017-09-11T03:34:49.571Z,11.48
2017-09-11T03:35:56.112Z,11.48
2017-09-11T03:37:03.548Z,11.44
2017-09-11T03:38:10.845Z,11.49
2017-09-11T03:39:17.106Z,11.50
2017-09-11T03:40:23.855Z,11.52
2017-09-11T03:41:30.012Z,11.57
2017-09-11T03:42:36.682Z,11.49
2017-09-11T03:43:43.400Z,11.52
2017-09-11T03:44:49.693Z,11.55
2017-09-11T03:45:56.259Z,11.51
2017-09-11T03:47:02.603Z,11.52
2017-09-11T03:48:09.667Z,11.41
2017-09-11T03:49:15.947Z,11.43
2017-09-11T03:50:22.524Z,11.48
2017-09-11T03:51:29.600Z,11.47
2017-09-11T03:52:36.588Z,11.45
2017-09-11T03:53:43.119Z,11.46
2017-09-11T03:54:49.631Z,11.44
2017-09-11T03:55:58.438Z,11.43
2017-09-11T03:57:07.169Z,11.46
2017-09-11T03:58:18.196Z,11.39
2017-09-11T03:59:27.414Z,11.37
2017-09-11T04:00:38.202Z,11.30
2017-09-11T04:01:45.503Z,11.36
2017-09-11T04:02:53.067Z,11.36
2017-09-11T04:04:00.691Z,11.32
2017-09-11T04:05:09.578Z,11.24
2017-09-11T04:06:17.680Z,11.24
2017-09-11T04:07:25.548Z,11.31
2017-09-11T04:08:34.252Z,11.21
2017-09-11T04:09:42.530Z,11.14
2017-09-11T04:11:30.830Z,11.10
2017-09-11T04:13:23.156Z,11.15
2017-09-11T04:16:35.988Z,11.07
2017-09-11T04:17:44.687Z,11.12
2017-09-11T04:18:52.607Z,11.16
2017-09-11T04:20:02.229Z,11.16
2017-09-11T04:21:12.239Z,11.23
2017-09-11T04:22:20.651Z,11.24
2017-09-11T04:23:29.328Z,11.22
2017-09-11T04:24:38.355Z,11.23
2017-09-11T04:25:48.273Z,11.20
2017-09-11T04:26:56.655Z,11.22
2017-09-11T04:28:05.285Z,11.28
2017-09-11T04:29:15.158Z,11.25
2017-09-11T04:30:24.281Z,11.27
2017-09-11T04:31:34.247Z,11.35
2017-09-11T04:32:45.282Z,11.35
2017-09-11T04:33:55.352Z,11.42
2017-09-11T04:35:05.335Z,11.45
2017-09-11T04:36:15.433Z,11.51
2017-09-11T04:37:27.573Z,11.61
2017-09-11T04:38:58.214Z,11.61
2017-09-11T04:40:08.254Z,11.65
2017-09-11T04:41:18.185Z,11.71
2017-09-11T04:42:28.271Z,11.76
2017-09-11T04:43:38.243Z,11.83
2017-09-11T04:44:48.236Z,11.85
2017-09-11T04:45:57.364Z,11.90
2017-09-11T04:47:07.249Z,11.94
2017-09-11T04:48:18.286Z,11.96
2017-09-11T04:49:28.320Z,12.04
2017-09-11T04:52:11.213Z,12.05
2017-09-11T04:53:21.374Z,12.04
2017-09-11T04:54:31.319Z,12.08
2017-09-11T04:55:42.562Z,12.15
2017-09-11T04:56:54.247Z,12.14
2017-09-11T04:58:03.273Z,12.18
2017-09-11T05:00:32.272Z,12.19
2017-09-11T05:01:44.183Z,12.14
2017-09-11T05:02:55.247Z,12.20
2017-09-11T05:04:07.292Z,12.25
2017-09-11T05:05:59.304Z,12.33
2017-09-11T05:07:09.285Z,12.28
2017-09-11T05:11:51.381Z,12.33
2017-09-11T05:13:02.184Z,12.42
2017-09-11T05:14:14.318Z,12.42
2017-09-11T05:15:25.231Z,12.41
2017-09-11T05:16:35.412Z,12.47
2017-09-11T05:17:46.359Z,12.51
2017-09-11T05:18:56.239Z,12.53
2017-09-11T05:20:08.109Z,12.50
2017-09-11T05:21:17.231Z,12.51
2017-09-11T05:22:29.199Z,12.51
2017-09-11T05:23:41.323Z,12.62
2017-09-11T05:24:50.492Z,12.66
2017-09-11T05:25:59.259Z,12.52
2017-09-11T05:27:09.262Z,12.50
2017-09-11T05:28:19.501Z,12.44
2017-09-11T05:29:29.145Z,12.63
2017-09-11T05:30:39.954Z,12.64
2017-09-11T05:31:51.185Z,12.64
2017-09-11T05:33:03.190Z,12.69
2017-09-11T05:34:15.262Z,12.75
2017-09-11T05:35:25.147Z,12.64
2017-09-11T05:37:03.502Z,12.69
2017-09-11T05:40:16.125Z,12.65
2017-09-11T05:41:41.952Z,12.72
2017-09-11T05:46:10.484Z,12.67
2017-09-11T05:47:21.004Z,12.73
2017-09-11T05:48:57.182Z,12.77
2017-09-11T05:52:19.149Z,12.68
2017-09-11T05:53:31.346Z,12.71
2017-09-11T05:54:44.395Z,12.64
2017-09-11T05:56:14.924Z,12.69
2017-09-11T05:57:24.179Z,12.81
2017-09-11T06:00:20.235Z,12.84
2017-09-11T06:01:35.303Z,12.95
2017-09-11T06:02:48.102Z,12.99
2017-09-11T06:04:02.275Z,12.91
2017-09-11T06:05:13.291Z,12.95
2017-09-11T06:06:32.427Z,12.97
2017-09-11T06:08:02.262Z,13.05
2017-09-11T06:09:16.222Z,12.97
2017-09-11T06:10:28.244Z,13.03
2017-09-11T06:11:38.066Z,13.04
2017-09-11T06:12:54.134Z,13.24
2017-09-11T06:14:09.335Z,13.30
2017-09-11T06:15:54.834Z,13.48
2017-09-11T06:17:13.042Z,13.53
2017-09-11T06:19:03.093Z,13.54
2017-09-11T06:20:17.554Z,13.63
2017-09-11T06:21:29.986Z,13.66
2017-09-11T06:24:26.253Z,13.89
2017-09-11T06:25:39.316Z,14.00
2017-09-11T06:26:53.115Z,14.05
2017-09-11T06:28:05.551Z,14.04
2017-09-11T06:31:07.136Z,14.07
2017-09-11T06:32:17.073Z,14.14
2017-09-11T06:33:38.812Z,14.32
2017-09-11T06:34:50.998Z,14.44
2017-09-11T06:36:04.515Z,14.49
2017-09-11T06:40:16.839Z,14.63
2017-09-11T06:41:27.027Z,14.72
2017-09-11T06:44:25.849Z,14.73
2017-09-11T06:45:35.997Z,14.87
2017-09-11T06:46:45.007Z,15.02
2017-09-11T06:48:32.687Z,15.11
2017-09-11T06:49:43.074Z,15.08
2017-09-11T06:50:54.770Z,15.10
2017-09-11T06:52:05.968Z,15.09
2017-09-11T06:53:19.112Z,15.10
2017-09-11T06:54:28.904Z,15.29
2017-09-11T06:55:39.077Z,15.38
2017-09-11T06:56:50.264Z,15.40
2017-09-11T06:58:01.873Z,15.45
2017-09-11T06:59:12.909Z,15.35
2017-09-11T07:00:24.955Z,15.52
2017-09-11T07:02:48.102Z,15.68
2017-09-11T07:04:00.056Z,15.79
2017-09-11T07:05:11.091Z,15.73
2017-09-11T07:06:22.136Z,15.70
2017-09-11T07:07:32.942Z,15.79
2017-09-11T07:08:47.052Z,15.95
2017-09-11T07:09:57.009Z,15.95
2017-09-11T07:12:35.096Z,15.95
2017-09-11T07:13:45.858Z,15.95
2017-09-11T07:15:06.748Z,16.02
2017-09-11T07:16:17.132Z,16.15
2017-09-11T07:17:26.002Z,16.09
2017-09-11T07:18:35.971Z,16.09
2017-09-11T07:19:46.018Z,16.17
2017-09-11T07:20:57.063Z,16.39
2017-09-11T07:22:07.832Z,16.46
2017-09-11T07:23:19.914Z,16.56
2017-09-11T07:24:30.061Z,16.62
2017-09-11T07:25:38.727Z,16.67
2017-09-11T07:26:48.242Z,16.79
2017-09-11T07:27:58.062Z,16.61
2017-09-11T07:29:13.154Z,16.59
2017-09-11T07:30:36.163Z,16.45
2017-09-11T07:31:49.357Z,16.40
2017-09-11T07:33:04.841Z,16.42
2017-09-11T07:34:21.967Z,16.46
2017-09-11T07:36:09.887Z,16.41
2017-09-11T07:37:20.015Z,16.45
2017-09-11T07:38:34.021Z,16.36
2017-09-11T07:39:46.893Z,16.19
2017-09-11T07:40:58.004Z,16.25
2017-09-11T07:42:09.090Z,16.39
2017-09-11T07:43:22.033Z,16.39
2017-09-11T07:44:34.105Z,16.32
2017-09-11T07:45:46.873Z,16.40
2017-09-11T07:46:59.058Z,16.40
2017-09-11T07:48:09.927Z,16.46
2017-09-11T07:49:22.094Z,16.40
2017-09-11T07:50:36.880Z,16.45
2017-09-11T07:51:49.044Z,16.39
2017-09-11T07:53:00.165Z,16.26
2017-09-11T07:54:14.043Z,16.33
2017-09-11T07:55:22.707Z,16.15
2017-09-11T07:56:50.857Z,16.28
2017-09-11T08:03:09.153Z,16.15
2017-09-11T08:06:52.678Z,16.11
2017-09-11T08:08:06.047Z,16.21
2017-09-11T08:09:18.120Z,16.22
2017-09-11T08:10:31.812Z,16.40
2017-09-11T08:11:42.854Z,16.40
2017-09-11T08:14:23.667Z,16.44
2017-09-11T08:15:51.708Z,16.47
2017-09-11T08:18:56.929Z,16.60
2017-09-11T08:20:09.935Z,16.64
2017-09-11T08:21:22.959Z,16.53
2017-09-11T08:24:50.865Z,16.47
2017-09-11T08:26:01.840Z,16.45
2017-09-11T08:27:13.877Z,16.51
2017-09-11T08:28:22.747Z,16.58
2017-09-11T08:29:34.414Z,16.54
2017-09-11T08:30:43.770Z,16.62
2017-09-11T08:31:56.022Z,16.56
2017-09-11T08:33:06.941Z,16.58
2017-09-11T08:34:39.462Z,16.66
2017-09-11T08:35:53.301Z,16.73
2017-09-11T08:37:14.929Z,16.71
2017-09-11T08:38:29.846Z,16.74
2017-09-11T08:39:42.040Z,16.73
2017-09-11T08:40:55.890Z,16.83
2017-09-11T08:42:07.877Z,16.85
2017-09-11T08:43:18.848Z,16.81
2017-09-11T08:44:28.929Z,16.83
2017-09-11T08:45:42.741Z,16.81
2017-09-11T08:46:55.861Z,16.85
2017-09-11T08:48:05.980Z,16.94
2017-09-11T08:49:17.048Z,16.98
2017-09-11T08:50:28.024Z,16.97
2017-09-11T08:51:39.813Z,16.90
2017-09-11T08:52:49.864Z,16.96
2017-09-11T08:55:40.816Z,16.83
2017-09-11T08:57:09.944Z,16.77
2017-09-11T08:58:20.889Z,16.86
2017-09-11T09:00:46.888Z,16.71
2017-09-11T09:01:58.801Z,16.82
2017-09-11T09:03:11.738Z,16.82
2017-09-11T09:06:04.717Z,16.99
2017-09-11T09:07:19.919Z,17.09
2017-09-11T09:08:30.884Z,17.09
2017-09-11T09:09:40.614Z,16.84
2017-09-11T09:10:49.791Z,17.07
2017-09-11T09:12:01.833Z,17.06
2017-09-11T09:13:11.760Z,17.05
2017-09-11T09:14:53.599Z,17.17
2017-09-11T09:17:53.887Z,17.27
2017-09-11T09:19:23.541Z,17.28
2017-09-11T09:20:34.805Z,17.31
2017-09-11T09:21:47.368Z,17.37
2017-09-11T09:23:05.657Z,17.40
2017-09-11T09:24:47.575Z,17.38
2017-09-11T09:26:25.340Z,17.34
2017-09-11T09:27:35.799Z,17.16
2017-09-11T09:28:45.784Z,17.06
2017-09-11T09:29:56.576Z,17.10
2017-09-11T09:31:11.744Z,17.12
2017-09-11T09:32:20.578Z,17.03
2017-09-11T09:33:30.672Z,17.10
2017-09-11T09:34:43.711Z,17.09
2017-09-11T09:35:57.712Z,17.03
2017-09-11T09:38:34.817Z,17.09
2017-09-11T09:42:35.656Z,17.04
2017-09-11T09:43:48.672Z,16.98
2017-09-11T09:44:59.629Z,17.12
2017-09-11T09:46:09.650Z,17.13
2017-09-11T09:47:21.755Z,17.17
2017-09-11T09:48:56.361Z,17.29
2017-09-11T09:50:06.650Z,17.24
2017-09-11T09:51:21.619Z,17.23
2017-09-11T09:52:33.631Z,17.16
2017-09-11T09:53:43.763Z,17.06
2017-09-11T09:54:55.596Z,17.03
2017-09-11T09:56:07.358Z,17.15
2017-09-11T09:57:17.869Z,17.16
2017-09-11T09:58:27.164Z,17.18
2017-09-11T09:59:38.700Z,17.20
2017-09-11T10:00:51.612Z,17.33
2017-09-11T10:02:02.705Z,17.37
2017-09-11T10:03:19.714Z,17.40
2017-09-11T10:04:30.730Z,17.29
2017-09-11T10:05:40.947Z,17.38
2017-09-11T10:07:01.737Z,17.42
2017-09-11T10:08:12.772Z,17.51
2017-09-11T10:09:23.585Z,17.52
2017-09-11T10:10:36.958Z,17.50
2017-09-11T10:11:48.732Z,17.69
2017-09-11T10:12:58.779Z,17.74
2017-09-11T10:14:08.492Z,17.76
2017-09-11T10:15:19.602Z,17.84
2017-09-11T10:16:30.495Z,17.88
2017-09-11T10:17:42.493Z,17.83
2017-09-11T10:18:53.708Z,17.85
2017-09-11T10:20:03.503Z,17.93
2017-09-11T10:21:15.620Z,17.78
2017-09-11T10:22:26.677Z,17.85
2017-09-11T10:23:37.683Z,17.82
2017-09-11T10:24:48.692Z,17.76
2017-09-11T10:25:59.620Z,17.88
2017-09-11T10:27:12.910Z,17.77
2017-09-11T10:28:25.588Z,17.87
2017-09-11T10:29:39.887Z,17.76
2017-09-11T10:30:50.570Z,17.75
2017-09-11T10:32:23.631Z,17.77
2017-09-11T10:33:35.590Z,17.81
2017-09-11T10:34:45.553Z,17.83
2017-09-11T10:35:55.775Z,17.69
2017-09-11T10:37:05.650Z,17.65
2017-09-11T10:38:16.439Z,17.64
2017-09-11T10:39:26.552Z,17.59
2017-09-11T10:40:41.733Z,17.59
2017-09-11T10:41:51.550Z,17.52
2017-09-11T10:43:06.574Z,17.48
2017-09-11T10:44:21.512Z,17.50
2017-09-11T10:45:35.842Z,17.50
2017-09-11T10:46:47.693Z,17.51
2017-09-11T10:48:22.374Z,17.52
2017-09-11T10:51:37.491Z,17.39
2017-09-11T10:55:23.318Z,17.68
2017-09-11T10:56:35.599Z,17.72
2017-09-11T10:57:47.515Z,17.90
2017-09-11T10:58:58.394Z,18.03
2017-09-11T11:00:11.667Z,18.23
2017-09-11T11:01:21.941Z,18.34
2017-09-11T11:03:08.756Z,18.33
2017-09-11T11:04:23.598Z,18.45
2017-09-11T11:05:35.675Z,18.64
2017-09-11T11:06:48.476Z,18.68
2017-09-11T11:08:00.443Z,18.75
2017-09-11T11:09:13.523Z,18.79
2017-09-11T11:10:25.535Z,18.79
2017-09-11T11:11:37.504Z,18.90
2017-09-11T11:12:49.655Z,18.93
2017-09-11T11:16:08.350Z,18.78
2017-09-11T11:19:41.480Z,18.66
2017-09-11T11:20:52.447Z,18.64
2017-09-11T11:22:03.435Z,18.58
2017-09-11T11:23:14.397Z,18.75
2017-09-11T11:24:25.419Z,18.74
2017-09-11T11:25:37.522Z,18.86
2017-09-11T11:26:48.344Z,18.76
2017-09-11T11:27:58.452Z,18.76
2017-09-11T11:29:08.506Z,18.74
2017-09-11T11:30:19.516Z,18.77
2017-09-11T11:31:29.428Z,18.61
2017-09-11T11:32:39.998Z,18.80
2017-09-11T11:33:51.555Z,18.92
2017-09-11T11:35:08.525Z,18.93
2017-09-11T11:36:18.313Z,18.83
2017-09-11T11:38:47.471Z,18.98
2017-09-11T11:39:58.458Z,18.98
2017-09-11T11:41:08.268Z,18.91
2017-09-11T11:42:20.551Z,19.11
2017-09-11T11:43:32.387Z,19.16
2017-09-11T11:44:42.449Z,19.31
2017-09-11T11:45:53.436Z,19.31
2017-09-11T11:47:03.467Z,19.43
2017-09-11T11:48:14.748Z,19.49
2017-09-11T11:49:26.363Z,19.50
2017-09-11T11:50:37.250Z,19.27
2017-09-11T11:51:48.539Z,19.36
2017-09-11T11:53:01.280Z,19.06
2017-09-11T11:54:11.295Z,18.74
2017-09-11T11:55:58.316Z,18.79
2017-09-11T11:57:10.535Z,18.80
2017-09-11T12:00:40.431Z,19.09
2017-09-11T12:01:53.399Z,19.04
2017-09-11T12:03:03.346Z,19.01
2017-09-11T12:04:16.528Z,18.69
2017-09-11T12:05:26.637Z,18.85
2017-09-11T12:06:39.580Z,19.01
2017-09-11T12:07:50.617Z,18.67
2017-09-11T12:11:07.564Z,18.73
2017-09-11T12:12:19.370Z,18.76
2017-09-11T12:13:31.316Z,18.82
2017-09-11T12:14:44.318Z,18.78
2017-09-11T12:22:56.350Z,18.72
2017-09-11T12:24:09.233Z,18.72
2017-09-11T12:25:20.352Z,18.74
2017-09-11T12:26:31.179Z,18.49
2017-09-11T12:28:04.048Z,18.43
2017-09-11T12:29:12.419Z,18.48
2017-09-11T12:30:23.479Z,18.28
2017-09-11T12:31:34.478Z,18.41
2017-09-11T12:32:46.431Z,18.50
2017-09-11T12:33:56.211Z,18.33
2017-09-11T12:35:05.607Z,18.43
2017-09-11T12:36:18.323Z,18.27
2017-09-11T12:37:30.526Z,18.51
2017-09-11T12:38:40.457Z,18.53
2017-09-11T12:39:50.265Z,18.52
2017-09-11T12:41:02.574Z,18.50
2017-09-11T12:44:49.166Z,18.38
2017-09-11T12:46:00.514Z,18.41
2017-09-11T12:48:53.286Z,18.47
2017-09-11T12:50:03.241Z,18.48
2017-09-11T12:51:17.324Z,18.54
2017-09-11T12:52:28.263Z,18.55
2017-09-11T12:53:38.097Z,18.57
2017-09-11T12:54:57.063Z,18.56
2017-09-11T12:56:06.038Z,18.59
2017-09-11T12:57:19.057Z,18.77
2017-09-11T12:58:30.495Z,18.49
2017-09-11T12:59:40.128Z,18.71
2017-09-11T13:00:52.227Z,18.91
2017-09-11T13:03:16.201Z,18.96
2017-09-11T13:04:26.542Z,19.18
2017-09-11T13:05:37.203Z,19.37
2017-09-11T13:06:47.273Z,19.24
2017-09-11T13:07:57.393Z,19.40
2017-09-11T13:09:08.166Z,19.51
2017-09-11T13:10:19.056Z,19.52
2017-09-11T13:11:29.207Z,19.40
2017-09-11T13:12:39.170Z,19.03
2017-09-11T13:13:50.904Z,19.17
2017-09-11T13:15:01.411Z,18.90
2017-09-11T13:16:11.132Z,19.07
2017-09-11T13:17:20.215Z,19.26
2017-09-11T13:18:30.240Z,18.87
2017-09-11T13:19:41.212Z,18.99
2017-09-11T13:20:52.186Z,19.16
2017-09-11T13:22:02.148Z,19.10
2017-09-11T13:23:14.419Z,19.18
2017-09-11T13:24:24.317Z,18.84
2017-09-11T13:25:34.351Z,19.05
2017-09-11T13:26:47.190Z,19.13
2017-09-11T13:27:57.212Z,19.24
2017-09-11T13:29:07.219Z,19.23
2017-09-11T13:30:16.119Z,19.33
2017-09-11T13:31:27.269Z,19.35
2017-09-11T13:32:37.133Z,19.48
2017-09-11T13:33:47.224Z,19.45
2017-09-11T13:34:57.229Z,19.30
2017-09-11T13:38:13.131Z,19.55
2017-09-11T13:39:23.133Z,19.55
2017-09-11T13:40:35.545Z,19.40
2017-09-11T13:41:45.064Z,19.43
2017-09-11T13:42:56.228Z,19.19
2017-09-11T13:44:06.051Z,19.08
2017-09-11T13:45:16.182Z,18.95
2017-09-11T13:46:26.697Z,18.74
2017-09-11T13:47:42.394Z,18.58
2017-09-11T13:51:44.957Z,18.89
2017-09-11T13:52:54.296Z,18.86
2017-09-11T13:54:03.192Z,18.74
2017-09-11T13:55:13.059Z,18.88
2017-09-11T13:56:22.245Z,18.81
2017-09-11T14:00:25.871Z,19.15
2017-09-11T14:01:36.056Z,19.36
2017-09-11T14:05:55.113Z,19.56
2017-09-11T14:09:36.860Z,19.57
2017-09-11T14:10:47.622Z,19.64
2017-09-11T14:11:58.039Z,19.75
2017-09-11T14:13:07.912Z,19.88
2017-09-11T14:14:19.049Z,19.96
2017-09-11T14:15:29.091Z,20.05
2017-09-11T14:16:40.204Z,20.16
2017-09-11T14:17:51.089Z,20.45
2017-09-11T14:19:18.059Z,20.48
2017-09-11T14:22:27.175Z,20.24
2017-09-11T14:23:36.109Z,20.38
2017-09-11T14:24:46.998Z,20.39
2017-09-11T14:25:58.045Z,20.14
2017-09-11T14:27:10.989Z,20.08
2017-09-11T14:28:21.102Z,20.24
2017-09-11T14:31:13.377Z,20.23
2017-09-11T14:32:23.314Z,20.55
2017-09-11T14:33:33.977Z,20.90
2017-09-11T14:34:45.057Z,20.95
2017-09-11T14:35:53.915Z,20.92
2017-09-11T14:37:03.012Z,20.37
2017-09-11T14:38:13.080Z,20.29
2017-09-11T14:39:22.130Z,19.61
2017-09-11T14:40:32.173Z,19.44
2017-09-11T14:41:43.031Z,19.46
2017-09-11T14:42:52.918Z,19.52
2017-09-11T14:44:03.054Z,19.44
2017-09-11T14:45:11.618Z,19.55
2017-09-11T14:46:19.029Z,19.57
2017-09-11T14:47:27.913Z,19.37
2017-09-11T14:48:38.082Z,19.47
2017-09-11T14:49:49.191Z,19.61
2017-09-11T14:50:59.925Z,19.64
2017-09-11T14:52:09.863Z,19.62
2017-09-11T14:53:21.143Z,19.67
2017-09-11T14:54:30.279Z,19.94
2017-09-11T14:55:40.910Z,20.09
2017-09-11T14:56:51.149Z,20.24
2017-09-11T14:58:00.827Z,20.07
2017-09-11T14:59:29.744Z,20.27
2017-09-11T15:00:40.035Z,20.41
2017-09-11T15:01:49.151Z,20.56
2017-09-11T15:02:58.044Z,20.82
2017-09-11T15:04:20.961Z,20.94
2017-09-11T15:05:28.966Z,20.44
2017-09-11T15:06:38.968Z,20.51
2017-09-11T15:07:53.223Z,19.98
2017-09-11T15:11:21.895Z,20.25
2017-09-11T15:12:31.858Z,20.30
2017-09-11T15:13:41.108Z,20.59
2017-09-11T15:14:54.859Z,20.97
2017-09-11T15:18:42.083Z,21.39
2017-09-11T15:22:08.015Z,21.39
2017-09-11T15:23:38.675Z,21.89
2017-09-11T15:24:46.831Z,22.04
2017-09-11T15:25:57.160Z,22.19
2017-09-11T15:27:06.973Z,22.45
2017-09-11T15:28:18.849Z,22.23
2017-09-11T15:29:29.193Z,21.68
2017-09-11T15:30:53.863Z,21.18
2017-09-11T15:32:14.151Z,20.58
2017-09-11T15:33:25.916Z,20.28
2017-09-11T15:34:38.897Z,20.90
2017-09-11T15:37:27.101Z,22.32
2017-09-11T15:38:37.189Z,23.21
2017-09-11T15:39:48.863Z,23.84
2017-09-11T15:40:59.349Z,23.37
2017-09-11T15:42:10.879Z,23.60
2017-09-11T15:43:24.884Z,23.76
2017-09-11T15:44:34.914Z,23.68
2017-09-11T15:45:44.334Z,24.20
2017-09-11T15:46:56.282Z,24.76
2017-09-11T15:48:07.839Z,24.72
2017-09-11T15:49:17.713Z,24.40
2017-09-11T15:50:26.694Z,23.79
2017-09-11T15:51:37.806Z,23.31
2017-09-11T15:52:48.633Z,23.88
2017-09-11T15:53:58.854Z,23.72
2017-09-11T15:55:07.902Z,23.93
2017-09-11T15:56:18.834Z,24.13
2017-09-11T15:57:30.836Z,24.10
2017-09-11T15:58:40.951Z,24.49
2017-09-11T16:00:06.323Z,24.33
2017-09-11T16:01:31.908Z,23.97
2017-09-11T16:02:50.859Z,23.83
2017-09-11T16:04:20.321Z,23.05
2017-09-11T16:07:28.754Z,21.37
2017-09-11T16:10:35.757Z,20.77
2017-09-11T16:12:13.720Z,20.50
2017-09-11T16:13:36.700Z,20.14
2017-09-11T16:14:50.666Z,20.00
2017-09-11T16:19:35.127Z,19.88
2017-09-11T16:21:15.633Z,19.72
2017-09-11T16:22:27.010Z,19.63
2017-09-11T16:24:00.644Z,19.46
2017-09-11T16:25:14.041Z,19.32
2017-09-11T16:26:50.758Z,19.24
2017-09-11T16:28:02.739Z,19.08
2017-09-11T16:29:14.753Z,19.04
2017-09-11T16:30:28.047Z,18.80
2017-09-11T16:31:39.793Z,18.81
2017-09-11T16:32:52.838Z,18.81
2017-09-11T16:34:11.442Z,18.52
2017-09-11T16:35:44.583Z,18.13
2017-09-11T16:36:55.739Z,18.33
2017-09-11T16:38:10.994Z,18.42
2017-09-11T16:40:05.920Z,18.42
2017-09-11T16:41:46.612Z,18.35
2017-09-11T16:42:56.592Z,18.28
2017-09-11T16:44:07.865Z,18.18
2017-09-11T16:49:42.625Z,18.02
2017-09-11T16:50:51.876Z,17.98
2017-09-11T16:52:01.738Z,18.08
2017-09-11T16:55:46.937Z,18.03
2017-09-11T16:56:57.730Z,18.13
2017-09-11T16:58:07.668Z,18.11
2017-09-11T16:59:16.173Z,17.70
2017-09-11T17:00:28.584Z,17.38
2017-09-11T17:01:39.651Z,16.74
2017-09-11T17:02:49.603Z,16.21
2017-09-11T17:03:59.756Z,16.06
2017-09-11T17:05:10.738Z,15.89
2017-09-11T17:06:21.815Z,15.70
2017-09-11T17:07:32.018Z,15.60
2017-09-11T17:08:42.624Z,15.53
2017-09-11T17:09:53.009Z,15.53
2017-09-11T17:11:02.703Z,15.44
2017-09-11T17:12:12.895Z,15.40
2017-09-11T17:13:22.724Z,15.36
2017-09-11T17:14:33.756Z,15.31
2017-09-11T17:15:44.807Z,15.31
2017-09-11T17:16:54.685Z,15.21
2017-09-11T17:18:04.702Z,15.06
2017-09-11T17:19:15.636Z,15.10